Time;durP1;ratioP1;P1;durP2;ratioP2;P2;SDS_P1;SDS_P2;PMS_P1;PMS_P2;Temp;Humidity;BMP_temperature;BMP_pressure;BME280_temperature;BME280_humidity;BME280_pressure;Samples;Min_cycle;Max_cycle;Signal;HPM_P1;HPM_P2
2024/02/27 00:01:04;;;;;;;3.60;0.82;;;;;;;11.46;100.00;97612.06;5035651;28;20132;-93
2024/02/27 00:03:30;;;;;;;1.83;0.80;;;;;;;11.68;100.00;97644.66;5033772;28;20037;-93
2024/02/27 00:05:58;;;;;;;3.90;0.90;;;;;;;11.63;100.00;97646.72;5033322;28;20058;-93
2024/02/27 00:08:24;;;;;;;3.80;0.82;;;;;;;11.42;100.00;97614.00;5031076;28;20053;-94
2024/02/27 00:10:51;;;;;;;1.75;1.30;;;;;;;11.67;100.00;97656.28;5018446;28;20045;-93
2024/02/27 00:13:17;;;;;;;4.32;0.90;;;;;;;11.43;100.00;97612.22;5035614;28;20061;-93
2024/02/27 00:15:43;;;;;;;2.10;0.80;;;;;;;11.69;100.00;97642.91;5018101;28;20045;-92
2024/02/27 00:18:13;;;;;;;1.70;0.68;;;;;;;11.63;100.00;97644.03;5017432;28;20576;-93
2024/02/27 00:20:39;;;;;;;1.35;0.63;;;;;;;11.67;100.00;97648.28;5016993;28;20060;-94
2024/02/27 00:23:07;;;;;;;1.33;0.90;;;;;;;11.65;100.00;97655.50;5017579;28;20038;-93
2024/02/27 00:25:33;;;;;;;1.60;1.00;;;;;;;11.19;100.00;97566.34;5017015;28;20073;-92
2024/02/27 00:27:59;;;;;;;2.80;0.90;;;;;;;11.62;100.00;97649.44;5017150;28;20115;-93
2024/02/27 00:30:25;;;;;;;3.03;1.08;;;;;;;11.35;100.00;97603.75;5017464;28;20041;-93
2024/02/27 00:32:52;;;;;;;6.20;1.40;;;;;;;11.43;100.00;97598.94;5017006;28;20049;-92
2024/02/27 00:35:21;;;;;;;3.72;1.90;;;;;;;11.72;100.00;97656.03;5017350;28;20041;-94
2024/02/27 00:37:47;;;;;;;4.15;1.52;;;;;;;11.82;100.00;97649.34;5017669;28;20095;-93
2024/02/27 00:40:15;;;;;;;4.90;1.88;;;;;;;11.77;100.00;97626.50;5017067;28;20049;-94
2024/02/27 00:42:41;;;;;;;5.20;1.67;;;;;;;11.88;100.00;97650.84;5017005;28;20046;-92
2024/02/27 00:45:08;;;;;;;6.93;1.25;;;;;;;11.58;100.00;97591.94;5017185;28;20132;-94
2024/02/27 00:47:34;;;;;;;2.42;1.20;;;;;;;11.33;100.00;97571.88;5016687;28;20045;-93
2024/02/27 00:50:00;;;;;;;3.78;1.25;;;;;;;11.31;100.00;97569.28;5016979;28;20490;-94
2024/02/27 00:52:26;;;;;;;4.40;1.20;;;;;;;11.84;100.00;97651.91;5017839;28;20046;-92
2024/02/27 00:54:52;;;;;;;4.22;1.00;;;;;;;11.80;100.00;97607.75;5017417;28;20139;-93
2024/02/27 00:57:20;;;;;;;3.35;1.40;;;;;;;12.08;100.00;97652.50;5019303;28;20048;-93
2024/02/27 00:59:51;;;;;;;3.95;1.20;;;;;;;12.07;100.00;97646.31;5021519;28;20144;-93
2024/02/27 01:02:18;;;;;;;5.50;1.30;;;;;;;12.08;100.00;97631.19;5025860;28;20045;-94
2024/02/27 01:04:44;;;;;;;2.03;0.98;;;;;;;12.09;100.00;97628.44;5019269;28;20042;-93
2024/02/27 01:07:10;;;;;;;4.22;1.50;;;;;;;12.05;100.00;97634.00;5018025;28;20060;-94
2024/02/27 01:09:36;;;;;;;4.75;1.10;;;;;;;11.81;100.00;97574.81;5037490;28;20033;-94
2024/02/27 01:12:03;;;;;;;5.22;2.20;;;;;;;12.13;100.00;97614.00;5057794;28;20050;-93
2024/02/27 01:14:31;;;;;;;3.20;1.15;;;;;;;12.16;100.00;97618.31;5041137;28;20025;-93
2024/02/27 01:16:57;;;;;;;4.72;0.90;;;;;;;12.13;100.00;97616.69;5041337;28;20029;-93
2024/02/27 01:19:25;;;;;;;6.85;1.00;;;;;;;12.17;100.00;97612.06;5020039;28;20045;-94
2024/02/27 01:21:51;;;;;;;4.43;1.30;;;;;;;12.20;100.00;97616.38;5017195;28;20049;-94
2024/02/27 01:24:19;;;;;;;4.03;1.10;;;;;;;11.68;100.00;97551.47;5016170;28;20095;-93
2024/02/27 01:26:45;;;;;;;3.35;1.08;;;;;;;12.18;100.00;97624.44;5016964;28;20047;-93
2024/02/27 01:29:12;;;;;;;4.15;1.10;;;;;;;11.92;100.00;97585.81;5017261;28;20041;-94
2024/02/27 01:31:39;;;;;;;3.70;1.20;;;;;;;12.23;100.00;97619.75;5016526;28;20045;-93
2024/02/27 01:34:05;;;;;;;7.93;1.85;;;;;;;12.24;100.00;97621.44;5016725;28;20073;-93
2024/02/27 01:36:32;;;;;;;4.13;1.10;;;;;;;12.21;100.00;97610.06;5016473;28;20497;-94
2024/02/27 01:39:00;;;;;;;6.05;1.05;;;;;;;12.22;100.00;97614.47;5016446;28;20048;-94
2024/02/27 01:41:29;;;;;;;4.32;1.92;;;;;;;12.03;100.00;97586.13;5016707;28;20052;-93
2024/02/27 01:43:55;;;;;;;6.13;1.60;;;;;;;12.21;100.00;97610.06;5016263;28;20052;-93
2024/02/27 01:46:23;;;;;;;2.33;1.20;;;;;;;12.01;100.00;97577.34;5016092;28;20042;-93
2024/02/27 01:48:55;;;;;;;4.57;1.02;;;;;;;12.09;100.00;97591.13;5016360;28;20397;-93
2024/02/27 01:51:23;;;;;;;2.78;1.27;;;;;;;11.86;100.00;97560.34;5033581;28;20512;-93
2024/02/27 01:53:53;;;;;;;1.52;1.10;;;;;;;12.04;100.00;97593.19;5036407;28;20091;-91
2024/02/27 01:56:20;;;;;;;4.05;1.10;;;;;;;12.15;100.00;97616.59;5020233;28;20064;-94
2024/02/27 01:58:46;;;;;;;6.38;1.42;;;;;;;11.99;100.00;97589.03;5020011;28;20045;-93
2024/02/27 02:01:14;;;;;;;3.60;1.25;;;;;;;11.71;100.00;97534.50;5020475;28;20052;-94
2024/02/27 02:03:40;;;;;;;3.97;1.27;;;;;;;12.13;100.00;97610.50;5019715;28;20037;-93
2024/02/27 02:06:09;;;;;;;4.43;1.00;;;;;;;12.16;100.00;97623.66;5031519;28;20041;-93
2024/02/27 02:08:35;;;;;;;5.10;1.15;;;;;;;11.96;100.00;97590.03;5023584;28;20137;-94
2024/02/27 02:11:03;;;;;;;4.47;1.27;;;;;;;11.90;100.00;97580.56;5024343;28;20046;-91
2024/02/27 02:13:31;;;;;;;2.80;1.17;;;;;;;12.05;100.00;97613.53;5028909;28;20065;-93
2024/02/27 02:16:03;;;;;;;3.55;1.42;;;;;;;12.06;100.00;97611.75;5022721;28;20140;-93
2024/02/27 02:18:29;;;;;;;4.15;1.02;;;;;;;11.82;100.00;97572.09;5021082;28;20045;-93
2024/02/27 02:20:56;;;;;;;2.25;0.82;;;;;;;11.74;100.00;97560.09;5019512;28;20236;-92
2024/02/27 02:23:23;;;;;;;3.45;0.80;;;;;;;12.12;100.00;97608.75;5019380;28;20048;-93
2024/02/27 02:25:52;;;;;;;3.13;0.95;;;;;;;12.09;100.00;97606.25;5020175;28;20042;-92
2024/02/27 02:28:18;;;;;;;3.45;1.27;;;;;;;12.07;100.00;97603.66;5019971;28;20042;-94
2024/02/27 02:30:47;;;;;;;4.10;1.00;;;;;;;11.80;100.00;97562.47;5019951;28;20045;-94
2024/02/27 02:33:14;;;;;;;1.77;0.60;;;;;;;11.79;100.00;97563.38;5020020;28;20116;-93
2024/02/27 02:35:43;;;;;;;5.13;1.08;;;;;;;12.13;100.00;97618.50;5018793;28;20046;-94
2024/02/27 02:38:11;;;;;;;3.83;0.90;;;;;;;11.86;100.00;97563.00;5019677;28;20546;-93
2024/02/27 02:40:37;;;;;;;5.05;1.00;;;;;;;11.69;100.00;97549.69;5019235;28;20140;-93
2024/02/27 02:43:03;;;;;;;4.82;1.00;;;;;;;11.78;100.00;97545.69;5019597;28;20136;-93
2024/02/27 02:45:31;;;;;;;2.45;0.70;;;;;;;12.33;100.00;97634.28;5020953;28;20048;-93
2024/02/27 02:48:02;;;;;;;4.85;1.35;;;;;;;12.29;100.00;97608.72;5019878;28;20096;-92
2024/02/27 02:50:29;;;;;;;2.50;1.10;;;;;;;12.21;100.00;97584.31;5020021;28;20069;-93
2024/02/27 02:52:56;;;;;;;2.42;0.90;;;;;;;12.53;100.00;97633.25;5019328;28;20045;-93
2024/02/27 02:55:24;;;;;;;2.17;0.82;;;;;;;12.58;100.00;97633.00;5036666;28;20034;-94
2024/02/27 02:57:50;;;;;;;3.47;0.73;;;;;;;12.29;100.00;97578.56;5018761;28;20041;-92
2024/02/27 03:00:21;;;;;;;7.38;0.90;;;;;;;12.62;100.00;97642.56;5020227;28;20112;-95
2024/02/27 03:02:47;;;;;;;2.03;0.73;;;;;;;12.18;100.00;97556.94;5019612;28;20448;-94
2024/02/27 03:05:13;;;;;;;3.95;0.90;;;;;;;12.67;100.00;97637.00;5018542;28;20041;-94
2024/02/27 03:07:40;;;;;;;8.45;0.98;;;;;;;12.61;100.00;97623.97;5018896;28;20045;-95
2024/02/27 03:10:23;;;;;;;2.45;0.93;;;;;;;12.60;100.00;97638.25;5019113;28;20049;-94
2024/02/27 03:12:56;;;;;;;8.23;0.93;;;;;;;12.38;100.00;97591.38;5022992;28;20048;-93
2024/02/27 03:15:23;;;;;;;2.70;0.75;;;;;;;12.53;100.00;97617.25;5030763;28;20037;-91
2024/02/27 03:17:49;;;;;;;6.38;0.90;;;;;;;12.76;100.00;97647.16;5025027;28;20046;-91
2024/02/27 03:20:27;;;;;;;1.23;0.55;;;;;;;12.19;100.00;97564.00;5024495;28;20075;-95
2024/02/27 03:22:53;;;;;;;1.50;0.40;;;;;;;12.63;100.00;97627.44;5019384;28;20037;-93
2024/02/27 03:25:19;;;;;;;5.30;0.60;;;;;;;12.49;100.00;97596.16;5018778;28;20111;-93
2024/02/27 03:27:45;;;;;;;2.88;0.95;;;;;;;12.78;100.00;97636.41;5018679;28;20045;-94
2024/02/27 03:30:17;;;;;;;7.20;0.75;;;;;;;12.29;100.00;97555.41;5019020;28;20076;-93
2024/02/27 03:32:43;;;;;;;3.58;0.70;;;;;;;12.17;100.00;97545.44;5018203;28;20042;-93
2024/02/27 03:35:09;;;;;;;4.47;1.25;;;;;;;12.65;100.00;97636.22;5020621;28;20048;-95
2024/02/27 03:37:45;;;;;;;1.20;0.40;;;;;;;12.51;100.00;97608.47;5019220;28;20049;-95
2024/02/27 03:40:11;;;;;;;2.08;0.63;;;;;;;12.68;100.00;97641.38;5018883;28;20045;-94
2024/02/27 03:42:41;;;;;;;3.67;0.82;;;;;;;12.35;100.00;97598.72;5019169;28;20049;-94
2024/02/27 03:45:10;;;;;;;2.22;0.70;;;;;;;12.67;100.00;97650.34;5018446;28;20046;-93
2024/02/27 03:47:37;;;;;;;5.28;1.10;;;;;;;12.62;100.00;97658.59;5019169;28;20045;-93
2024/02/27 03:50:04;;;;;;;1.63;0.70;;;;;;;12.61;100.00;97656.00;5019790;28;20037;-92
2024/02/27 03:52:30;;;;;;;3.80;0.73;;;;;;;12.28;100.00;97598.19;5022861;28;20034;-93
2024/02/27 03:54:56;;;;;;;3.30;0.40;;;;;;;12.42;100.00;97618.75;5023343;28;20048;-93
2024/02/27 03:57:26;;;;;;;0.90;0.60;;;;;;;12.63;100.00;97657.63;5028710;28;20036;-92
2024/02/27 03:59:52;;;;;;;2.20;0.80;;;;;;;12.30;100.00;97601.63;5042419;28;20041;-93
2024/02/27 04:02:18;;;;;;;1.13;0.60;;;;;;;12.15;100.00;97575.78;5042390;28;20030;-91
2024/02/27 04:04:45;;;;;;;3.83;0.70;;;;;;;12.56;100.00;97632.22;5039002;28;20041;-93
2024/02/27 04:07:11;;;;;;;3.25;0.65;;;;;;;12.63;100.00;97657.63;5037645;28;20136;-93
2024/02/27 04:09:38;;;;;;;6.00;0.85;;;;;;;12.16;100.00;97580.16;5018303;28;20095;-93
2024/02/27 04:12:07;;;;;;;1.45;0.85;;;;;;;12.63;100.00;97654.09;5018670;28;20076;-93
2024/02/27 04:14:33;;;;;;;4.57;0.88;;;;;;;12.77;100.00;97670.22;5017855;28;20042;-94
2024/02/27 04:17:04;;;;;;;2.17;0.65;;;;;;;12.26;100.00;97589.41;5017496;28;20053;-94
2024/02/27 04:19:43;;;;;;;3.17;0.52;;;;;;;12.84;100.00;97679.63;5031333;28;20502;-94
2024/02/27 04:22:41;;;;;;;3.95;0.70;;;;;;;12.39;100.00;97618.94;5018453;28;20575;-93
2024/02/27 04:25:24;;;;;;;7.93;1.50;;;;;;;12.75;100.00;97672.09;5022805;28;20045;-94
2024/02/27 04:27:58;;;;;;;4.47;0.82;;;;;;;12.42;100.00;97619.63;5023908;28;20501;-94
2024/02/27 04:30:43;;;;;;;2.60;1.00;;;;;;;12.71;100.00;97674.09;5024461;28;20053;-94
2024/02/27 04:33:10;;;;;;;5.45;0.75;;;;;;;12.70;100.00;97671.50;5039121;28;20045;-93
2024/02/27 04:35:36;;;;;;;4.45;0.85;;;;;;;12.62;100.00;97671.91;5017725;28;20375;-93
2024/02/27 04:38:09;;;;;;;10.77;1.00;;;;;;;12.57;100.00;97673.09;5017518;28;20045;-94
2024/02/27 04:40:35;;;;;;;1.17;0.65;;;;;;;12.00;100.00;97591.63;5017542;28;20068;-93
2024/02/27 04:43:01;;;;;;;3.72;0.95;;;;;;;12.58;100.00;97678.34;5016855;28;20076;-94
2024/02/27 04:45:28;;;;;;;8.00;1.00;;;;;;;12.54;100.00;97682.97;5016648;28;20041;-93
2024/02/27 04:47:54;;;;;;;1.88;0.85;;;;;;;12.60;100.00;97678.25;5018019;28;20569;-93
2024/02/27 04:50:20;;;;;;;2.88;0.77;;;;;;;12.65;100.00;97678.88;5017451;28;20073;-95
2024/02/27 04:52:46;;;;;;;4.97;0.80;;;;;;;12.10;100.00;97587.53;5016736;28;20072;-94
2024/02/27 04:55:13;;;;;;;4.65;0.77;;;;;;;12.60;100.00;97668.47;5017084;28;20390;-93
2024/02/27 04:57:39;;;;;;;2.50;0.73;;;;;;;12.54;100.00;97652.78;5016861;28;20063;-93
2024/02/27 05:00:09;;;;;;;5.75;1.00;;;;;;;12.52;100.00;97650.19;5033925;28;20103;-93
2024/02/27 05:02:35;;;;;;;7.93;1.15;;;;;;;12.12;100.00;97588.31;5016306;28;20041;-93
2024/02/27 05:05:01;;;;;;;2.63;0.70;;;;;;;12.66;100.00;97686.78;5017243;28;20046;-93
2024/02/27 05:07:27;;;;;;;1.23;0.60;;;;;;;12.22;100.00;97628.66;5016749;28;20064;-93
2024/02/27 05:09:54;;;;;;;3.55;0.88;;;;;;;12.23;100.00;97621.53;5016571;28;20069;-94
2024/02/27 05:12:21;;;;;;;4.85;0.75;;;;;;;12.65;100.00;97687.75;5034371;28;20034;-93
2024/02/27 05:14:48;;;;;;;3.72;0.73;;;;;;;12.53;100.00;97670.59;5016590;28;20049;-93
2024/02/27 05:17:14;;;;;;;1.95;0.63;;;;;;;12.09;100.00;97615.13;5016911;28;20471;-93
2024/02/27 05:19:40;;;;;;;6.35;0.88;;;;;;;12.56;100.00;97682.06;5016136;28;20045;-94
2024/02/27 05:22:06;;;;;;;4.82;0.68;;;;;;;12.58;100.00;97686.34;5016673;28;20124;-94
2024/02/27 05:24:33;;;;;;;5.43;0.98;;;;;;;12.07;100.00;97609.00;5016475;28;20072;-94
2024/02/27 05:26:59;;;;;;;3.65;1.08;;;;;;;12.32;100.00;97653.06;5018507;28;20037;-94
2024/02/27 05:29:27;;;;;;;5.15;1.25;;;;;;;12.57;100.00;97692.63;5020186;28;20057;-94
2024/02/27 05:31:53;;;;;;;2.25;1.20;;;;;;;12.37;100.00;97659.00;5021492;28;20041;-95
2024/02/27 05:34:18;;;;;;;7.57;1.17;;;;;;;12.40;100.00;97674.81;5020990;28;20095;-94
2024/02/27 05:36:54;;;;;;;6.00;1.40;;;;;;;12.57;100.00;97697.94;5020998;28;20053;-95
2024/02/27 05:39:20;;;;;;;3.88;0.98;;;;;;;12.01;100.00;97614.63;5021499;28;20068;-93
2024/02/27 05:41:46;;;;;;;3.42;0.88;;;;;;;11.99;100.00;97621.88;5021353;28;20397;-96
2024/02/27 05:44:16;;;;;;;6.28;0.90;;;;;;;12.54;100.00;97708.78;5022141;28;20045;-94
2024/02/27 05:46:48;;;;;;;4.28;1.30;;;;;;;12.02;100.00;97635.03;5032887;28;20076;-93
2024/02/27 05:49:15;;;;;;;8.48;1.23;;;;;;;12.56;100.00;97716.72;5043501;28;20113;-94
2024/02/27 05:51:41;;;;;;;3.15;0.80;;;;;;;11.97;100.00;97637.06;5044909;28;20049;-95
2024/02/27 05:54:10;;;;;;;3.30;0.70;;;;;;;12.30;100.00;97690.44;5045215;28;20026;-95
2024/02/27 05:56:36;;;;;;;5.03;1.52;;;;;;;12.02;100.00;97643.03;5044811;28;20566;-95
2024/02/27 05:59:03;;;;;;;5.82;1.05;;;;;;;12.26;100.00;97680.88;5042750;28;20058;-93
2024/02/27 06:01:38;;;;;;;3.38;1.10;;;;;;;12.11;100.00;97660.34;5041132;28;20042;-94
2024/02/27 06:04:08;;;;;;;1.52;0.85;;;;;;;12.53;100.00;97739.03;5041326;28;20033;-93
2024/02/27 06:06:37;;;;;;;1.77;0.70;;;;;;;12.21;100.00;97690.03;5030382;28;20073;-93
2024/02/27 06:09:04;;;;;;;2.65;1.02;;;;;;;12.53;100.00;97745.25;5041433;28;20470;-94
2024/02/27 06:11:30;;;;;;;2.72;0.95;;;;;;;12.23;100.00;97691.72;5024117;28;20037;-95
2024/02/27 06:14:01;;;;;;;2.15;0.80;;;;;;;12.29;100.00;97706.50;5022711;28;20152;-94
2024/02/27 06:16:27;;;;;;;6.45;0.77;;;;;;;12.50;100.00;97742.75;5021006;28;20053;-94
2024/02/27 06:18:55;;;;;;;4.00;0.68;;;;;;;12.25;100.00;97710.25;5020608;28;20144;-95
2024/02/27 06:24:27;;;;;;;1.95;0.90;;;;;;;12.57;100.00;97759.28;5134349;27;20830;-92
2024/02/27 06:26:55;;;;;;;4.57;1.50;;;;;;;12.21;100.00;97727.34;5118789;28;20054;-95
2024/02/27 06:29:25;;;;;;;3.45;1.00;;;;;;;12.43;100.00;97761.81;5119308;28;20064;-95
2024/02/27 06:31:56;;;;;;;2.80;0.93;;;;;;;12.40;100.00;97772.59;5118930;28;20042;-94
2024/02/27 06:34:22;;;;;;;5.43;1.00;;;;;;;11.97;100.00;97708.13;5116627;28;20054;-92
2024/02/27 06:36:48;;;;;;;4.32;1.08;;;;;;;12.42;100.00;97778.72;5116356;28;20043;-93
2024/02/27 06:39:14;;;;;;;3.17;0.80;;;;;;;12.39;100.00;97769.09;5115884;28;20050;-94
2024/02/27 06:41:47;;;;;;;8.13;1.35;;;;;;;12.09;100.00;97723.50;5127970;27;20039;-94
2024/02/27 06:44:15;;;;;;;2.67;0.88;;;;;;;12.24;100.00;97764.53;5139212;27;20066;-93
2024/02/27 06:46:41;;;;;;;6.78;1.25;;;;;;;12.44;100.00;97782.19;5138130;27;20043;-93
2024/02/27 06:49:10;;;;;;;4.18;1.60;;;;;;;12.35;100.00;97778.19;5134094;28;20055;-94
2024/02/27 06:51:39;;;;;;;9.10;1.73;;;;;;;12.17;100.00;97749.78;5121003;28;20043;-95
2024/02/27 06:54:05;;;;;;;3.45;1.13;;;;;;;11.94;100.00;97702.97;5127749;28;20118;-93
2024/02/27 06:56:31;;;;;;;5.65;0.88;;;;;;;12.15;100.00;97749.84;5126313;28;20047;-94
2024/02/27 06:58:59;;;;;;;5.25;1.05;;;;;;;12.16;100.00;97764.03;5117001;28;20054;-93
2024/02/27 07:01:25;;;;;;;5.45;1.15;;;;;;;12.44;100.00;97804.38;5116356;28;20043;-94
2024/02/27 07:08:37;;;;;;;3.50;0.90;;;;;;;12.52;100.00;97804.84;5120984;28;20043;-93
2024/02/27 07:11:33;;;;;;;3.45;1.02;;;;;;;12.09;100.00;97720.84;5116602;28;20088;-95
2024/02/27 07:14:01;;;;;;;6.97;1.02;;;;;;;12.33;100.00;97735.59;5115898;28;20043;-95
2024/02/27 07:16:29;;;;;;;5.38;1.63;;;;;;;12.26;100.00;97726.19;5115931;28;20043;-96
2024/02/27 07:18:58;;;;;;;4.05;1.52;;;;;;;12.54;100.00;97759.44;5117854;28;20044;-96
2024/02/27 07:21:24;;;;;;;3.65;1.20;;;;;;;12.19;100.00;97730.13;5116153;28;20043;-95
2024/02/27 07:23:58;;;;;;;2.47;1.00;;;;;;;12.36;100.00;97744.38;5116171;28;20410;-96
2024/02/27 07:26:27;;;;;;;4.22;1.17;;;;;;;12.57;100.00;97785.09;5114281;28;20059;-96
2024/02/27 07:28:53;;;;;;;6.47;1.38;;;;;;;12.74;100.00;97791.28;5116043;28;20133;-96
2024/02/27 07:31:23;;;;;;;4.78;1.50;;;;;;;12.74;100.00;97801.09;5113417;28;20069;-95
2024/02/27 07:33:52;;;;;;;4.35;1.70;;;;;;;12.74;100.00;97795.75;5114130;28;20040;-94
2024/02/27 07:36:18;;;;;;;4.78;1.17;;;;;;;12.54;100.00;97770.97;5105529;28;20043;-96
2024/02/27 07:38:47;;;;;;;2.65;1.20;;;;;;;12.32;100.00;97717.03;5106910;28;20106;-96
2024/02/27 07:41:19;;;;;;;2.85;1.33;;;;;;;12.56;100.00;97754.06;5107437;28;20036;-95
2024/02/27 07:43:47;;;;;;;3.58;1.45;;;;;;;12.66;100.00;97756.13;5102320;28;20044;-95
2024/02/27 07:46:17;;;;;;;4.13;1.25;;;;;;;12.58;100.00;97725.47;5101907;28;20078;-96
2024/02/27 07:48:45;;;;;;;3.42;1.45;;;;;;;12.99;100.00;97791.81;5102370;28;20051;-95
2024/02/27 07:51:26;;;;;;;2.72;0.90;;;;;;;12.59;100.00;97727.22;5102019;28;20044;-95
2024/02/27 07:53:55;;;;;;;8.32;0.93;;;;;;;13.09;100.00;97801.06;5099518;28;20046;-96
2024/02/27 07:56:26;;;;;;;2.40;1.17;;;;;;;12.67;100.00;97735.69;5099578;28;20047;-95
2024/02/27 07:58:52;;;;;;;2.17;0.90;;;;;;;13.05;100.00;97803.03;5099884;28;20052;-94
2024/02/27 08:01:19;;;;;;;4.47;1.17;;;;;;;13.13;100.00;97807.97;5099203;28;20130;-96
2024/02/27 08:03:49;;;;;;;3.33;1.10;;;;;;;13.19;98.91;97804.97;5098998;28;20039;-94
2024/02/27 08:06:23;;;;;;;2.85;1.10;;;;;;;13.20;99.85;97806.69;5100187;28;20035;-96
2024/02/27 08:08:52;;;;;;;6.82;1.58;;;;;;;13.22;100.00;97794.13;5099223;28;20044;-94
2024/02/27 08:11:18;;;;;;;3.70;1.27;;;;;;;13.29;100.00;97803.59;5099429;28;20044;-93
2024/02/27 08:13:47;;;;;;;6.97;1.20;;;;;;;13.15;100.00;97766.03;5099327;28;20502;-94
2024/02/27 08:16:15;;;;;;;2.47;1.15;;;;;;;13.42;97.66;97794.91;5100018;28;20137;-94
2024/02/27 08:18:41;;;;;;;6.60;1.35;;;;;;;13.53;95.92;97792.50;5101940;28;20059;-95
2024/02/27 08:21:10;;;;;;;9.27;1.63;;;;;;;13.19;95.62;97718.72;5099935;28;20077;-94
2024/02/27 08:23:42;;;;;;;2.63;0.90;;;;;;;13.56;94.68;97795.03;5081272;28;20080;-95
2024/02/27 08:26:09;;;;;;;5.28;1.10;;;;;;;13.56;95.21;97800.38;5074611;28;20166;-94
2024/02/27 08:28:38;;;;;;;3.90;1.13;;;;;;;13.58;94.47;97795.81;5075946;28;20134;-95
2024/02/27 08:31:07;;;;;;;4.13;1.20;;;;;;;13.59;95.21;97796.66;5075452;28;20559;-94
2024/02/27 08:33:34;;;;;;;5.93;1.98;;;;;;;13.13;94.47;97720.75;5075170;28;20094;-95
2024/02/27 08:36:00;;;;;;;3.17;1.25;;;;;;;13.54;96.06;97796.91;5075928;28;20048;-93
2024/02/27 08:38:30;;;;;;;5.07;1.38;;;;;;;13.25;96.03;97748.59;5080985;28;20051;-92
2024/02/27 08:40:56;;;;;;;8.05;1.30;;;;;;;13.47;96.97;97800.88;5077096;28;20051;-93
2024/02/27 08:43:42;;;;;;;4.65;1.00;;;;;;;13.51;93.80;97789.94;5077055;28;20488;-93
2024/02/27 08:55:18;;;;;;;4.20;1.90;;;;;;;13.53;92.91;97789.84;4975886;28;20458;-95
2024/02/27 09:05:56;;;;;;;;;;;;;;;;;;;;;
2024/02/27 09:09:21;;;;;;;2.38;1.13;;;;;;;13.88;86.08;97787.91;4956582;29;20058;-96
2024/02/27 09:16:32;;;;;;;2.83;0.95;;;;;;;14.11;83.18;97793.75;5002625;22;20063;-94
2024/02/27 09:23:16;;;;;;;2.88;1.10;;;;;;;14.48;81.35;97803.16;5077854;28;20040;-93
2024/02/27 09:26:17;;;;;;;3.40;1.17;;;;;;;14.42;80.04;97752.72;4978421;28;20046;-94
2024/02/27 09:28:44;;;;;;;5.65;1.13;;;;;;;14.63;77.91;97747.94;4996955;28;20089;-93
2024/02/27 09:31:17;;;;;;;2.83;0.90;;;;;;;14.83;77.22;97761.94;4994570;28;20046;-94
2024/02/27 09:34:03;;;;;;;3.58;1.23;;;;;;;14.79;76.17;97756.78;5011781;28;20119;-94
2024/02/27 09:36:32;;;;;;;4.05;1.08;;;;;;;14.60;79.27;97709.81;5012398;28;20054;-94
2024/02/27 09:39:03;;;;;;;3.65;1.13;;;;;;;15.08;77.75;97755.94;5010142;28;20082;-94
2024/02/27 09:41:44;;;;;;;4.85;1.15;;;;;;;15.16;77.03;97722.38;4983046;28;20042;-94
2024/02/27 09:44:25;;;;;;;4.03;1.50;;;;;;;15.69;76.00;97765.50;4972536;28;20046;-95
2024/02/27 09:47:36;;;;;;;4.05;1.33;;;;;;;16.00;73.54;97775.16;4996619;28;20133;-95
2024/02/27 09:50:34;;;;;;;5.57;1.40;;;;;;;16.25;70.94;97764.63;4989222;28;20506;-94
2024/02/27 09:53:11;;;;;;;3.58;1.63;;;;;;;16.41;70.56;97768.00;5003611;28;20132;-93
2024/02/27 09:55:47;;;;;;;7.57;2.50;;;;;;;16.57;71.15;97743.69;5033786;28;20105;-94
2024/02/27 09:58:14;;;;;;;6.50;1.75;;;;;;;16.65;70.69;97730.59;5079836;28;20032;-93
2024/02/27 10:00:44;;;;;;;3.13;1.52;;;;;;;17.00;69.91;97768.47;5078815;28;20040;-94
2024/02/27 10:03:16;;;;;;;3.20;1.63;;;;;;;17.10;67.96;97735.59;5078575;28;20044;-94
2024/02/27 10:13:46;;;;;;;6.95;2.17;;;;;;;18.25;60.19;97727.28;4983012;28;20073;-93
2024/02/27 10:20:10;;;;;;;4.32;1.60;;;;;;;18.65;60.40;97762.81;4892733;29;20063;-94
2024/02/27 10:26:33;;;;;;;2.33;1.05;;;;;;;18.66;60.61;97702.59;4866269;29;20037;-94
2024/02/27 10:29:05;;;;;;;4.05;1.05;;;;;;;18.66;60.27;97756.44;4878523;29;20518;-95
2024/02/27 10:31:45;;;;;;;1.27;0.88;;;;;;;18.36;61.07;97742.63;4864746;29;20057;-94
2024/02/27 10:34:15;;;;;;;1.40;1.00;;;;;;;17.85;60.83;97689.91;4927688;29;20055;-94
2024/02/27 10:36:48;;;;;;;3.70;1.48;;;;;;;17.86;59.94;97770.47;4954290;29;20051;-94
2024/02/27 10:39:15;;;;;;;3.35;0.80;;;;;;;17.46;61.46;97694.50;4937920;29;20075;-96
2024/02/27 10:41:44;;;;;;;3.85;1.10;;;;;;;17.70;61.87;97761.78;4938269;29;20055;-96
2024/02/27 10:51:18;;;;;;;6.30;1.70;;;;;;;17.45;66.21;97765.34;4901493;29;20091;-92
2024/02/27 10:53:52;;;;;;;4.47;1.58;;;;;;;17.52;65.74;97768.44;4918880;29;20142;-94
2024/02/27 10:56:29;;;;;;;4.63;1.35;;;;;;;17.57;64.57;97764.47;4934744;29;20114;-94
2024/02/27 10:58:56;;;;;;;4.60;1.50;;;;;;;17.69;64.73;97764.56;4928095;28;20081;-95
2024/02/27 11:01:29;;;;;;;7.20;2.17;;;;;;;17.67;64.51;97764.66;4957636;28;20051;-94
2024/02/27 11:04:04;;;;;;;3.97;1.27;;;;;;;17.23;64.35;97699.69;4973487;28;20538;-95
2024/02/27 11:06:41;;;;;;;2.28;1.15;;;;;;;17.33;64.63;97707.13;4957729;28;20046;-94
2024/02/27 11:09:23;;;;;;;3.33;1.48;;;;;;;17.70;64.25;97755.53;4958493;28;20043;-94
2024/02/27 11:12:11;;;;;;;2.97;1.20;;;;;;;17.62;63.56;97727.34;4913751;28;20043;-94
2024/02/27 11:14:45;;;;;;;5.32;1.00;;;;;;;17.73;63.35;97747.25;4962021;28;20051;-94
2024/02/27 11:17:16;;;;;;;4.63;1.10;;;;;;;17.49;65.52;97747.19;4968535;28;20046;-95
2024/02/27 11:19:49;;;;;;;4.28;1.40;;;;;;;17.32;66.12;97686.56;4981487;28;20038;-95
2024/02/27 11:22:25;;;;;;;2.38;1.08;;;;;;;17.73;65.21;97728.41;5001481;28;20145;-94
2024/02/27 11:24:55;;;;;;;;;;;;;;;17.85;63.23;97723.03;5076193;28;20072;-93
2024/02/27 11:27:23;;;;;;;5.85;1.00;;;;;;;17.85;61.31;97716.81;5086160;28;19951;-95
2024/02/27 11:29:52;;;;;;;3.30;0.93;;;;;;;18.07;61.07;97713.38;5083410;28;20487;-95
2024/02/27 11:35:24;;;;;;;1.65;0.90;;;;;;;18.09;59.21;97681.84;5068933;28;20116;-95
2024/02/27 11:38:05;;;;;;;2.88;0.80;;;;;;;17.82;60.67;97679.38;5085988;28;20063;-96
2024/02/27 11:40:55;;;;;;;3.90;1.20;;;;;;;17.61;59.68;97618.13;5089209;28;20040;-95
2024/02/27 11:43:30;;;;;;;1.63;0.90;;;;;;;18.00;60.06;97645.72;5097255;28;20036;-95
2024/02/27 11:46:39;;;;;;;4.38;1.02;;;;;;;17.68;60.25;97596.16;5098388;28;20048;-95
2024/02/27 11:49:39;;;;;;;2.55;0.80;;;;;;;18.10;57.82;97662.03;5100696;28;20034;-95
2024/02/27 11:52:09;;;;;;;3.25;0.75;;;;;;;18.01;57.27;97630.44;5099169;28;20143;-96
2024/02/27 11:54:35;;;;;;;2.78;1.35;;;;;;;18.11;58.46;97655.69;5100375;28;20044;-95
2024/02/27 11:57:04;;;;;;;7.38;1.05;;;;;;;17.88;58.20;97586.63;5101497;28;20095;-95
2024/02/27 11:59:38;;;;;;;3.03;0.88;;;;;;;18.44;57.06;97652.25;5096822;28;20390;-95
2024/02/27 12:02:17;;;;;;;4.60;1.02;;;;;;;18.44;57.48;97630.72;5088139;28;20055;-95
2024/02/27 12:04:54;;;;;;;3.72;1.20;;;;;;;18.57;57.55;97651.31;5084337;28;20048;-95
2024/02/27 12:14:21;;;;;;;3.50;1.35;;;;;;;17.97;60.47;97627.13;4981101;28;20047;-94
2024/02/27 12:17:01;;;;;;;6.90;1.10;;;;;;;17.76;61.30;97591.94;4981338;28;20073;-95
2024/02/27 12:19:39;;;;;;;1.58;0.60;;;;;;;17.67;58.56;97549.56;4980677;28;20061;-95
2024/02/27 12:22:16;;;;;;;2.20;0.82;;;;;;;18.04;58.84;97617.63;5012643;28;20057;-95
2024/02/27 12:24:45;;;;;;;3.30;0.77;;;;;;;18.00;57.53;97581.16;4998427;28;20085;-95
2024/02/27 12:27:18;;;;;;;5.47;1.10;;;;;;;18.29;57.32;97574.53;5000015;28;20046;-94
2024/02/27 12:29:52;;;;;;;3.80;0.90;;;;;;;18.57;55.66;97595.63;4999991;28;20058;-95
2024/02/27 12:32:31;;;;;;;4.68;1.38;;;;;;;18.43;54.90;97560.81;5003886;28;20053;-96
2024/02/27 12:35:08;;;;;;;3.35;1.25;;;;;;;18.84;55.98;97605.22;4984442;28;20073;-95
2024/02/27 12:38:26;;;;;;;4.97;0.95;;;;;;;18.74;56.86;97588.91;4985320;28;20113;-95
2024/02/27 12:59:38;;;;;;;3.50;1.30;;;;;;;18.30;57.86;97638.13;4943960;28;20048;-94
2024/02/27 13:02:10;;;;;;;3.45;1.33;;;;;;;18.26;58.89;97641.06;4956556;29;20044;-95
2024/02/27 13:04:47;;;;;;;6.13;2.03;;;;;;;17.62;58.03;97571.44;4925915;29;20040;-96
2024/02/27 13:07:39;;;;;;;3.35;1.40;;;;;;;17.45;58.69;97569.16;4956262;29;20039;-94
2024/02/27 13:10:33;;;;;;;5.22;1.60;;;;;;;17.70;60.11;97631.88;4940809;29;20043;-94